sensor_id;sensor_type;location;lat;lon;timestamp;P1;durP1;ratioP1;P2;durP2;ratioP2
4857;SDS011;58975;51.978;8.472;2024-02-21T00:02:39;34.83;;;12.35;;
4857;SDS011;58975;51.978;8.472;2024-02-21T00:07:35;29.88;;;11.85;;
4857;SDS011;58975;51.978;8.472;2024-02-21T00:12:31;24.48;;;13.05;;
4857;SDS011;58975;51.978;8.472;2024-02-21T00:17:28;38.42;;;15.07;;
4857;SDS011;58975;51.978;8.472;2024-02-21T00:22:24;31.02;;;12.55;;
4857;SDS011;58975;51.978;8.472;2024-02-21T00:27:24;36.72;;;13.48;;
4857;SDS011;58975;51.978;8.472;2024-02-21T00:32:20;30.75;;;13.18;;
4857;SDS011;58975;51.978;8.472;2024-02-21T00:37:17;26.95;;;13.85;;
4857;SDS011;58975;51.978;8.472;2024-02-21T00:42:13;30.90;;;12.60;;
4857;SDS011;58975;51.978;8.472;2024-02-21T00:47:10;27.25;;;11.80;;
4857;SDS011;58975;51.978;8.472;2024-02-21T00:52:06;31.55;;;12.85;;
4857;SDS011;58975;51.978;8.472;2024-02-21T00:57:03;29.38;;;12.65;;
4857;SDS011;58975;51.978;8.472;2024-02-21T01:01:59;26.00;;;11.90;;
4857;SDS011;58975;51.978;8.472;2024-02-21T01:06:56;31.85;;;11.25;;
4857;SDS011;58975;51.978;8.472;2024-02-21T01:11:52;32.08;;;11.77;;
4857;SDS011;58975;51.978;8.472;2024-02-21T01:16:49;33.92;;;12.27;;
4857;SDS011;58975;51.978;8.472;2024-02-21T01:21:45;29.27;;;11.80;;
4857;SDS011;58975;51.978;8.472;2024-02-21T01:26:42;33.75;;;11.85;;
4857;SDS011;58975;51.978;8.472;2024-02-21T01:31:38;28.48;;;11.23;;
4857;SDS011;58975;51.978;8.472;2024-02-21T01:36:34;39.65;;;11.68;;
4857;SDS011;58975;51.978;8.472;2024-02-21T01:41:31;35.05;;;11.43;;
4857;SDS011;58975;51.978;8.472;2024-02-21T01:46:27;33.22;;;11.65;;
4857;SDS011;58975;51.978;8.472;2024-02-21T01:51:27;31.75;;;10.75;;
4857;SDS011;58975;51.978;8.472;2024-02-21T01:56:23;24.98;;;11.45;;
4857;SDS011;58975;51.978;8.472;2024-02-21T02:01:20;30.23;;;11.60;;
4857;SDS011;58975;51.978;8.472;2024-02-21T02:06:18;28.90;;;11.07;;
4857;SDS011;58975;51.978;8.472;2024-02-21T02:11:14;37.78;;;11.65;;
4857;SDS011;58975;51.978;8.472;2024-02-21T02:16:11;35.80;;;12.32;;
4857;SDS011;58975;51.978;8.472;2024-02-21T02:21:10;26.25;;;12.07;;
4857;SDS011;58975;51.978;8.472;2024-02-21T02:26:10;25.00;;;10.88;;
4857;SDS011;58975;51.978;8.472;2024-02-21T02:31:06;26.13;;;11.23;;
4857;SDS011;58975;51.978;8.472;2024-02-21T02:36:03;29.35;;;11.98;;
4857;SDS011;58975;51.978;8.472;2024-02-21T02:40:59;36.22;;;12.55;;
4857;SDS011;58975;51.978;8.472;2024-02-21T02:45:56;31.02;;;13.55;;
4857;SDS011;58975;51.978;8.472;2024-02-21T02:50:53;33.65;;;13.70;;
4857;SDS011;58975;51.978;8.472;2024-02-21T02:55:49;29.52;;;12.70;;
4857;SDS011;58975;51.978;8.472;2024-02-21T03:00:45;32.47;;;12.63;;
4857;SDS011;58975;51.978;8.472;2024-02-21T03:05:42;30.83;;;11.55;;
4857;SDS011;58975;51.978;8.472;2024-02-21T03:10:39;31.45;;;12.68;;
4857;SDS011;58975;51.978;8.472;2024-02-21T03:15:37;20.50;;;9.98;;
4857;SDS011;58975;51.978;8.472;2024-02-21T03:20:33;30.92;;;10.95;;
4857;SDS011;58975;51.978;8.472;2024-02-21T03:25:30;32.80;;;13.30;;
4857;SDS011;58975;51.978;8.472;2024-02-21T03:30:26;27.85;;;11.98;;
4857;SDS011;58975;51.978;8.472;2024-02-21T03:35:23;21.63;;;10.82;;
4857;SDS011;58975;51.978;8.472;2024-02-21T03:40:22;28.40;;;11.00;;
4857;SDS011;58975;51.978;8.472;2024-02-21T03:45:19;25.40;;;11.60;;
4857;SDS011;58975;51.978;8.472;2024-02-21T03:50:15;23.83;;;10.27;;
4857;SDS011;58975;51.978;8.472;2024-02-21T03:55:12;27.83;;;9.63;;
4857;SDS011;58975;51.978;8.472;2024-02-21T04:00:08;28.90;;;10.73;;
4857;SDS011;58975;51.978;8.472;2024-02-21T04:10:07;22.08;;;10.32;;
4857;SDS011;58975;51.978;8.472;2024-02-21T04:15:04;25.70;;;9.65;;
4857;SDS011;58975;51.978;8.472;2024-02-21T04:20:02;27.38;;;9.95;;
4857;SDS011;58975;51.978;8.472;2024-02-21T04:25:05;22.33;;;10.15;;
4857;SDS011;58975;51.978;8.472;2024-02-21T04:30:02;22.35;;;9.88;;
4857;SDS011;58975;51.978;8.472;2024-02-21T04:34:59;29.75;;;10.45;;
4857;SDS011;58975;51.978;8.472;2024-02-21T04:39:56;23.20;;;9.45;;
4857;SDS011;58975;51.978;8.472;2024-02-21T04:44:52;25.05;;;10.57;;
4857;SDS011;58975;51.978;8.472;2024-02-21T04:49:49;20.20;;;9.95;;
4857;SDS011;58975;51.978;8.472;2024-02-21T04:54:45;20.33;;;9.38;;
4857;SDS011;58975;51.978;8.472;2024-02-21T04:59:45;21.40;;;9.18;;
4857;SDS011;58975;51.978;8.472;2024-02-21T05:04:44;22.17;;;9.75;;
4857;SDS011;58975;51.978;8.472;2024-02-21T05:09:41;26.02;;;9.05;;
4857;SDS011;58975;51.978;8.472;2024-02-21T05:14:38;25.00;;;10.55;;
4857;SDS011;58975;51.978;8.472;2024-02-21T05:19:35;26.23;;;12.38;;
4857;SDS011;58975;51.978;8.472;2024-02-21T05:24:31;24.17;;;11.05;;
4857;SDS011;58975;51.978;8.472;2024-02-21T05:29:27;27.02;;;10.98;;
4857;SDS011;58975;51.978;8.472;2024-02-21T05:34:24;22.75;;;11.38;;
4857;SDS011;58975;51.978;8.472;2024-02-21T05:39:21;28.08;;;12.75;;
4857;SDS011;58975;51.978;8.472;2024-02-21T05:44:19;23.15;;;11.57;;
4857;SDS011;58975;51.978;8.472;2024-02-21T05:49:15;32.53;;;11.77;;
4857;SDS011;58975;51.978;8.472;2024-02-21T05:54:12;27.42;;;11.13;;
4857;SDS011;58975;51.978;8.472;2024-02-21T05:59:08;29.30;;;11.10;;
4857;SDS011;58975;51.978;8.472;2024-02-21T06:04:05;34.33;;;11.85;;
4857;SDS011;58975;51.978;8.472;2024-02-21T06:09:01;27.42;;;12.27;;
4857;SDS011;58975;51.978;8.472;2024-02-21T06:13:59;22.33;;;11.63;;
4857;SDS011;58975;51.978;8.472;2024-02-21T06:18:55;33.63;;;12.85;;
4857;SDS011;58975;51.978;8.472;2024-02-21T06:23:51;24.27;;;12.75;;
4857;SDS011;58975;51.978;8.472;2024-02-21T06:28:48;31.45;;;11.57;;
4857;SDS011;58975;51.978;8.472;2024-02-21T06:33:44;31.38;;;12.57;;
4857;SDS011;58975;51.978;8.472;2024-02-21T06:38:41;27.55;;;10.60;;
4857;SDS011;58975;51.978;8.472;2024-02-21T06:43:37;23.85;;;9.10;;
4857;SDS011;58975;51.978;8.472;2024-02-21T06:48:34;23.88;;;8.15;;
4857;SDS011;58975;51.978;8.472;2024-02-21T06:53:30;24.17;;;8.35;;
4857;SDS011;58975;51.978;8.472;2024-02-21T06:58:27;27.52;;;8.80;;
4857;SDS011;58975;51.978;8.472;2024-02-21T07:03:23;17.38;;;8.00;;
4857;SDS011;58975;51.978;8.472;2024-02-21T07:08:20;19.20;;;7.20;;
4857;SDS011;58975;51.978;8.472;2024-02-21T07:13:18;15.23;;;7.20;;
4857;SDS011;58975;51.978;8.472;2024-02-21T07:18:14;16.88;;;6.88;;
4857;SDS011;58975;51.978;8.472;2024-02-21T07:23:12;16.60;;;6.70;;
4857;SDS011;58975;51.978;8.472;2024-02-21T07:28:08;18.65;;;6.32;;
4857;SDS011;58975;51.978;8.472;2024-02-21T07:33:05;16.20;;;6.30;;
4857;SDS011;58975;51.978;8.472;2024-02-21T07:38:04;16.20;;;7.55;;
4857;SDS011;58975;51.978;8.472;2024-02-21T07:43:01;16.00;;;6.40;;
4857;SDS011;58975;51.978;8.472;2024-02-21T07:47:57;15.65;;;6.38;;
4857;SDS011;58975;51.978;8.472;2024-02-21T07:52:54;13.75;;;5.55;;
4857;SDS011;58975;51.978;8.472;2024-02-21T07:57:50;18.48;;;5.90;;
4857;SDS011;58975;51.978;8.472;2024-02-21T08:02:48;18.58;;;6.05;;
4857;SDS011;58975;51.978;8.472;2024-02-21T08:07:45;11.45;;;4.95;;
4857;SDS011;58975;51.978;8.472;2024-02-21T08:12:41;12.70;;;5.70;;
4857;SDS011;58975;51.978;8.472;2024-02-21T08:17:38;14.88;;;5.22;;
4857;SDS011;58975;51.978;8.472;2024-02-21T08:22:36;16.33;;;6.22;;
4857;SDS011;58975;51.978;8.472;2024-02-21T08:27:33;17.35;;;5.32;;
4857;SDS011;58975;51.978;8.472;2024-02-21T08:32:30;9.98;;;4.80;;
4857;SDS011;58975;51.978;8.472;2024-02-21T08:37:27;15.40;;;4.75;;
4857;SDS011;58975;51.978;8.472;2024-02-21T08:42:23;10.88;;;4.88;;
4857;SDS011;58975;51.978;8.472;2024-02-21T08:47:20;13.07;;;5.35;;
4857;SDS011;58975;51.978;8.472;2024-02-21T08:52:16;14.52;;;4.80;;
4857;SDS011;58975;51.978;8.472;2024-02-21T08:57:13;9.05;;;4.43;;
4857;SDS011;58975;51.978;8.472;2024-02-21T09:02:12;9.40;;;4.03;;
4857;SDS011;58975;51.978;8.472;2024-02-21T09:07:09;17.45;;;4.50;;
4857;SDS011;58975;51.978;8.472;2024-02-21T09:12:06;8.13;;;4.30;;
4857;SDS011;58975;51.978;8.472;2024-02-21T09:17:03;8.57;;;4.07;;
4857;SDS011;58975;51.978;8.472;2024-02-21T09:22:00;9.50;;;3.38;;
4857;SDS011;58975;51.978;8.472;2024-02-21T09:26:56;9.18;;;3.35;;
4857;SDS011;58975;51.978;8.472;2024-02-21T09:31:52;7.03;;;3.25;;
4857;SDS011;58975;51.978;8.472;2024-02-21T09:36:49;4.20;;;3.05;;
4857;SDS011;58975;51.978;8.472;2024-02-21T09:41:47;10.13;;;4.13;;
4857;SDS011;58975;51.978;8.472;2024-02-21T09:46:59;6.60;;;3.70;;
4857;SDS011;58975;51.978;8.472;2024-02-21T09:52:02;8.63;;;4.05;;
4857;SDS011;58975;51.978;8.472;2024-02-21T10:01:57;10.20;;;3.65;;
4857;SDS011;58975;51.978;8.472;2024-02-21T10:06:56;13.60;;;4.28;;
4857;SDS011;58975;51.978;8.472;2024-02-21T10:11:53;8.82;;;4.30;;
4857;SDS011;58975;51.978;8.472;2024-02-21T10:16:56;7.25;;;3.72;;
4857;SDS011;58975;51.978;8.472;2024-02-21T10:22:03;11.25;;;4.18;;
4857;SDS011;58975;51.978;8.472;2024-02-21T10:27:04;8.57;;;4.20;;
4857;SDS011;58975;51.978;8.472;2024-02-21T10:32:05;10.75;;;5.15;;
4857;SDS011;58975;51.978;8.472;2024-02-21T10:37:03;11.30;;;4.90;;
4857;SDS011;58975;51.978;8.472;2024-02-21T10:42:01;11.27;;;5.27;;
4857;SDS011;58975;51.978;8.472;2024-02-21T10:47:00;10.25;;;5.45;;
4857;SDS011;58975;51.978;8.472;2024-02-21T10:52:13;9.52;;;4.63;;
4857;SDS011;58975;51.978;8.472;2024-02-21T10:57:13;12.57;;;7.07;;
4857;SDS011;58975;51.978;8.472;2024-02-21T11:02:10;13.95;;;6.57;;
4857;SDS011;58975;51.978;8.472;2024-02-21T11:07:07;14.60;;;6.55;;
4857;SDS011;58975;51.978;8.472;2024-02-21T11:12:07;19.63;;;6.75;;
4857;SDS011;58975;51.978;8.472;2024-02-21T11:17:14;13.82;;;7.03;;
4857;SDS011;58975;51.978;8.472;2024-02-21T11:22:15;18.20;;;6.68;;
4857;SDS011;58975;51.978;8.472;2024-02-21T11:32:16;11.30;;;6.45;;
4857;SDS011;58975;51.978;8.472;2024-02-21T11:37:15;14.82;;;6.75;;
4857;SDS011;58975;51.978;8.472;2024-02-21T11:42:14;13.27;;;6.32;;
4857;SDS011;58975;51.978;8.472;2024-02-21T11:47:10;16.88;;;5.80;;
4857;SDS011;58975;51.978;8.472;2024-02-21T11:52:07;8.45;;;4.40;;
4857;SDS011;58975;51.978;8.472;2024-02-21T11:57:04;12.38;;;5.63;;
4857;SDS011;58975;51.978;8.472;2024-02-21T12:02:00;12.25;;;5.43;;
4857;SDS011;58975;51.978;8.472;2024-02-21T12:06:59;16.33;;;6.13;;
4857;SDS011;58975;51.978;8.472;2024-02-21T12:11:59;11.65;;;5.50;;
4857;SDS011;58975;51.978;8.472;2024-02-21T12:17:01;14.50;;;5.35;;
4857;SDS011;58975;51.978;8.472;2024-02-21T12:22:00;15.32;;;5.78;;
4857;SDS011;58975;51.978;8.472;2024-02-21T12:26:57;11.63;;;5.30;;
4857;SDS011;58975;51.978;8.472;2024-02-21T12:31:54;10.83;;;4.87;;
4857;SDS011;58975;51.978;8.472;2024-02-21T12:36:51;12.85;;;5.28;;
4857;SDS011;58975;51.978;8.472;2024-02-21T12:41:48;15.80;;;6.38;;
4857;SDS011;58975;51.978;8.472;2024-02-21T12:46:44;17.75;;;5.90;;
4857;SDS011;58975;51.978;8.472;2024-02-21T12:51:41;12.05;;;5.43;;
4857;SDS011;58975;51.978;8.472;2024-02-21T12:56:38;12.35;;;5.20;;
4857;SDS011;58975;51.978;8.472;2024-02-21T13:01:36;12.37;;;4.73;;
4857;SDS011;58975;51.978;8.472;2024-02-21T13:06:34;19.80;;;6.00;;
4857;SDS011;58975;51.978;8.472;2024-02-21T13:11:33;13.15;;;4.32;;
4857;SDS011;58975;51.978;8.472;2024-02-21T13:16:30;9.93;;;4.75;;
4857;SDS011;58975;51.978;8.472;2024-02-21T13:21:27;10.68;;;3.85;;
4857;SDS011;58975;51.978;8.472;2024-02-21T13:26:23;10.35;;;3.53;;
4857;SDS011;58975;51.978;8.472;2024-02-21T13:31:20;9.95;;;3.20;;
4857;SDS011;58975;51.978;8.472;2024-02-21T13:36:17;9.98;;;3.63;;
4857;SDS011;58975;51.978;8.472;2024-02-21T13:41:14;10.40;;;4.43;;
4857;SDS011;58975;51.978;8.472;2024-02-21T13:46:10;14.02;;;3.15;;
4857;SDS011;58975;51.978;8.472;2024-02-21T13:51:07;8.25;;;2.97;;
4857;SDS011;58975;51.978;8.472;2024-02-21T13:56:04;9.50;;;2.55;;
4857;SDS011;58975;51.978;8.472;2024-02-21T14:01:00;9.75;;;2.67;;
4857;SDS011;58975;51.978;8.472;2024-02-21T14:05:58;9.00;;;2.95;;
4857;SDS011;58975;51.978;8.472;2024-02-21T14:15:52;8.52;;;3.25;;
4857;SDS011;58975;51.978;8.472;2024-02-21T14:20:49;10.27;;;3.17;;
4857;SDS011;58975;51.978;8.472;2024-02-21T14:25:45;6.13;;;2.47;;
4857;SDS011;58975;51.978;8.472;2024-02-21T14:30:42;9.77;;;2.38;;
4857;SDS011;58975;51.978;8.472;2024-02-21T14:35:39;6.78;;;2.17;;
4857;SDS011;58975;51.978;8.472;2024-02-21T14:40:36;4.30;;;2.15;;
4857;SDS011;58975;51.978;8.472;2024-02-21T14:45:32;7.55;;;2.20;;
4857;SDS011;58975;51.978;8.472;2024-02-21T14:50:29;10.73;;;3.33;;
4857;SDS011;58975;51.978;8.472;2024-02-21T14:55:25;8.02;;;2.42;;
4857;SDS011;58975;51.978;8.472;2024-02-21T15:00:22;9.90;;;2.42;;
4857;SDS011;58975;51.978;8.472;2024-02-21T15:05:25;7.88;;;2.03;;
4857;SDS011;58975;51.978;8.472;2024-02-21T15:10:22;7.63;;;2.28;;
4857;SDS011;58975;51.978;8.472;2024-02-21T15:15:18;7.95;;;2.15;;
4857;SDS011;58975;51.978;8.472;2024-02-21T15:20:15;6.53;;;2.60;;
4857;SDS011;58975;51.978;8.472;2024-02-21T15:25:11;10.90;;;2.60;;
4857;SDS011;58975;51.978;8.472;2024-02-21T15:30:12;11.80;;;3.15;;
4857;SDS011;58975;51.978;8.472;2024-02-21T15:35:09;8.40;;;2.40;;
4857;SDS011;58975;51.978;8.472;2024-02-21T15:40:07;3.80;;;1.83;;
4857;SDS011;58975;51.978;8.472;2024-02-21T15:45:04;10.02;;;2.63;;
4857;SDS011;58975;51.978;8.472;2024-02-21T15:50:03;6.65;;;2.00;;
4857;SDS011;58975;51.978;8.472;2024-02-21T15:55:00;7.13;;;2.35;;
4857;SDS011;58975;51.978;8.472;2024-02-21T15:59:57;8.52;;;2.47;;
4857;SDS011;58975;51.978;8.472;2024-02-21T16:04:54;4.40;;;1.80;;
4857;SDS011;58975;51.978;8.472;2024-02-21T16:09:52;4.65;;;1.95;;
4857;SDS011;58975;51.978;8.472;2024-02-21T16:14:49;7.55;;;1.95;;
4857;SDS011;58975;51.978;8.472;2024-02-21T16:19:46;13.63;;;3.35;;
4857;SDS011;58975;51.978;8.472;2024-02-21T16:24:42;18.30;;;6.07;;
4857;SDS011;58975;51.978;8.472;2024-02-21T16:29:39;10.98;;;3.30;;
4857;SDS011;58975;51.978;8.472;2024-02-21T16:34:36;5.47;;;2.38;;
4857;SDS011;58975;51.978;8.472;2024-02-21T16:39:32;12.68;;;3.13;;
4857;SDS011;58975;51.978;8.472;2024-02-21T16:44:29;8.93;;;2.53;;
4857;SDS011;58975;51.978;8.472;2024-02-21T16:49:27;11.95;;;2.30;;
4857;SDS011;58975;51.978;8.472;2024-02-21T16:54:27;5.78;;;2.42;;
4857;SDS011;58975;51.978;8.472;2024-02-21T16:59:24;9.93;;;2.30;;
4857;SDS011;58975;51.978;8.472;2024-02-21T17:04:21;11.00;;;2.47;;
4857;SDS011;58975;51.978;8.472;2024-02-21T17:09:18;10.30;;;2.20;;
4857;SDS011;58975;51.978;8.472;2024-02-21T17:14:15;9.20;;;2.45;;
4857;SDS011;58975;51.978;8.472;2024-02-21T17:19:12;7.95;;;2.70;;
4857;SDS011;58975;51.978;8.472;2024-02-21T17:24:08;10.68;;;3.05;;
4857;SDS011;58975;51.978;8.472;2024-02-21T17:29:05;8.75;;;2.60;;
4857;SDS011;58975;51.978;8.472;2024-02-21T17:34:01;4.03;;;2.13;;
4857;SDS011;58975;51.978;8.472;2024-02-21T17:38:59;7.57;;;2.40;;
4857;SDS011;58975;51.978;8.472;2024-02-21T17:43:55;9.95;;;2.75;;
4857;SDS011;58975;51.978;8.472;2024-02-21T17:48:52;5.07;;;2.50;;
4857;SDS011;58975;51.978;8.472;2024-02-21T17:53:48;8.00;;;2.05;;
4857;SDS011;58975;51.978;8.472;2024-02-21T17:58:45;10.88;;;2.00;;
4857;SDS011;58975;51.978;8.472;2024-02-21T18:03:41;5.22;;;1.70;;
4857;SDS011;58975;51.978;8.472;2024-02-21T18:08:39;4.73;;;1.63;;
4857;SDS011;58975;51.978;8.472;2024-02-21T18:13:36;5.43;;;1.75;;
4857;SDS011;58975;51.978;8.472;2024-02-21T18:18:33;5.40;;;1.55;;
4857;SDS011;58975;51.978;8.472;2024-02-21T18:23:30;4.05;;;1.15;;
4857;SDS011;58975;51.978;8.472;2024-02-21T18:28:26;7.05;;;2.08;;
4857;SDS011;58975;51.978;8.472;2024-02-21T18:33:22;5.47;;;1.23;;
4857;SDS011;58975;51.978;8.472;2024-02-21T18:38:19;3.67;;;1.23;;
4857;SDS011;58975;51.978;8.472;2024-02-21T18:43:15;3.78;;;1.27;;
4857;SDS011;58975;51.978;8.472;2024-02-21T18:48:12;1.88;;;1.23;;
4857;SDS011;58975;51.978;8.472;2024-02-21T18:53:11;7.38;;;1.60;;
4857;SDS011;58975;51.978;8.472;2024-02-21T18:58:08;6.75;;;1.50;;
4857;SDS011;58975;51.978;8.472;2024-02-21T19:03:04;7.60;;;1.80;;
4857;SDS011;58975;51.978;8.472;2024-02-21T19:08:01;5.22;;;2.28;;
4857;SDS011;58975;51.978;8.472;2024-02-21T19:12:57;3.95;;;1.35;;
4857;SDS011;58975;51.978;8.472;2024-02-21T19:17:54;4.25;;;1.60;;
4857;SDS011;58975;51.978;8.472;2024-02-21T19:22:50;4.47;;;1.20;;
4857;SDS011;58975;51.978;8.472;2024-02-21T19:27:47;2.50;;;1.58;;
4857;SDS011;58975;51.978;8.472;2024-02-21T19:32:43;3.17;;;1.50;;
4857;SDS011;58975;51.978;8.472;2024-02-21T19:37:41;4.40;;;1.60;;
4857;SDS011;58975;51.978;8.472;2024-02-21T19:42:37;7.68;;;1.67;;
4857;SDS011;58975;51.978;8.472;2024-02-21T19:47:34;3.67;;;1.63;;
4857;SDS011;58975;51.978;8.472;2024-02-21T19:52:33;4.18;;;1.80;;
4857;SDS011;58975;51.978;8.472;2024-02-21T19:57:30;3.90;;;1.80;;
4857;SDS011;58975;51.978;8.472;2024-02-21T20:02:26;4.97;;;1.85;;
4857;SDS011;58975;51.978;8.472;2024-02-21T20:07:22;5.03;;;2.45;;
4857;SDS011;58975;51.978;8.472;2024-02-21T20:12:21;7.22;;;2.88;;
4857;SDS011;58975;51.978;8.472;2024-02-21T20:17:20;6.03;;;2.25;;
4857;SDS011;58975;51.978;8.472;2024-02-21T20:22:18;4.17;;;1.87;;
4857;SDS011;58975;51.978;8.472;2024-02-21T20:27:16;5.22;;;2.70;;
4857;SDS011;58975;51.978;8.472;2024-02-21T20:32:13;7.07;;;2.45;;
4857;SDS011;58975;51.978;8.472;2024-02-21T20:37:10;5.43;;;1.90;;
4857;SDS011;58975;51.978;8.472;2024-02-21T20:42:07;7.25;;;2.60;;
4857;SDS011;58975;51.978;8.472;2024-02-21T20:47:04;6.60;;;1.83;;
4857;SDS011;58975;51.978;8.472;2024-02-21T20:52:02;4.32;;;1.60;;
4857;SDS011;58975;51.978;8.472;2024-02-21T20:56:59;6.57;;;2.13;;
4857;SDS011;58975;51.978;8.472;2024-02-21T21:01:55;2.97;;;1.42;;
4857;SDS011;58975;51.978;8.472;2024-02-21T21:06:59;6.13;;;1.83;;
4857;SDS011;58975;51.978;8.472;2024-02-21T21:11:56;5.05;;;1.90;;
4857;SDS011;58975;51.978;8.472;2024-02-21T21:16:53;7.18;;;1.90;;
4857;SDS011;58975;51.978;8.472;2024-02-21T21:21:49;4.20;;;1.92;;
4857;SDS011;58975;51.978;8.472;2024-02-21T21:26:46;3.97;;;1.65;;
4857;SDS011;58975;51.978;8.472;2024-02-21T21:31:42;6.40;;;1.45;;
4857;SDS011;58975;51.978;8.472;2024-02-21T21:36:40;5.97;;;1.80;;
4857;SDS011;58975;51.978;8.472;2024-02-21T21:41:36;10.48;;;2.10;;
4857;SDS011;58975;51.978;8.472;2024-02-21T21:46:33;1.98;;;1.27;;
4857;SDS011;58975;51.978;8.472;2024-02-21T21:51:29;9.57;;;2.00;;
4857;SDS011;58975;51.978;8.472;2024-02-21T21:56:26;9.32;;;1.73;;
4857;SDS011;58975;51.978;8.472;2024-02-21T22:01:26;1.73;;;1.38;;
4857;SDS011;58975;51.978;8.472;2024-02-21T22:06:24;3.38;;;1.45;;
4857;SDS011;58975;51.978;8.472;2024-02-21T22:11:21;5.18;;;1.40;;
4857;SDS011;58975;51.978;8.472;2024-02-21T22:16:17;6.95;;;1.60;;
4857;SDS011;58975;51.978;8.472;2024-02-21T22:21:14;3.83;;;1.60;;
4857;SDS011;58975;51.978;8.472;2024-02-21T22:26:12;3.75;;;1.45;;
4857;SDS011;58975;51.978;8.472;2024-02-21T22:31:14;3.30;;;1.80;;
4857;SDS011;58975;51.978;8.472;2024-02-21T22:36:11;6.93;;;1.52;;
4857;SDS011;58975;51.978;8.472;2024-02-21T22:41:15;7.90;;;2.58;;
4857;SDS011;58975;51.978;8.472;2024-02-21T22:46:12;1.92;;;1.42;;
4857;SDS011;58975;51.978;8.472;2024-02-21T22:51:09;3.28;;;1.60;;
4857;SDS011;58975;51.978;8.472;2024-02-21T22:56:06;5.38;;;1.73;;
4857;SDS011;58975;51.978;8.472;2024-02-21T23:01:03;7.07;;;2.28;;
4857;SDS011;58975;51.978;8.472;2024-02-21T23:06:00;2.20;;;1.48;;
4857;SDS011;58975;51.978;8.472;2024-02-21T23:10:57;7.87;;;1.17;;
4857;SDS011;58975;51.978;8.472;2024-02-21T23:15:56;3.40;;;1.60;;
4857;SDS011;58975;51.978;8.472;2024-02-21T23:20:53;2.35;;;1.60;;
4857;SDS011;58975;51.978;8.472;2024-02-21T23:25:49;3.97;;;1.77;;
4857;SDS011;58975;51.978;8.472;2024-02-21T23:30:46;4.45;;;1.90;;
4857;SDS011;58975;51.978;8.472;2024-02-21T23:35:42;3.22;;;1.92;;
4857;SDS011;58975;51.978;8.472;2024-02-21T23:40:39;6.53;;;2.08;;
4857;SDS011;58975;51.978;8.472;2024-02-21T23:45:36;3.10;;;2.03;;
4857;SDS011;58975;51.978;8.472;2024-02-21T23:50:32;6.10;;;2.00;;
4857;SDS011;58975;51.978;8.472;2024-02-21T23:55:29;1.95;;;1.60;;
